sensor_id;sensor_type;location;lat;lon;timestamp;P1;durP1;ratioP1;P2;durP2;ratioP2
46439;SDS011;32138;50.966;6.968;2023-08-24T00:00:43;8.82;;;5.97;;
46439;SDS011;32138;50.966;6.968;2023-08-24T00:02:14;9.35;;;5.72;;
46439;SDS011;32138;50.966;6.968;2023-08-24T00:03:45;11.98;;;6.75;;
46439;SDS011;32138;50.966;6.968;2023-08-24T00:05:16;8.00;;;5.97;;
46439;SDS011;32138;50.966;6.968;2023-08-24T00:06:47;10.20;;;6.05;;
46439;SDS011;32138;50.966;6.968;2023-08-24T00:08:17;8.60;;;6.05;;
46439;SDS011;32138;50.966;6.968;2023-08-24T00:09:48;7.35;;;5.57;;
46439;SDS011;32138;50.966;6.968;2023-08-24T00:11:22;10.05;;;6.20;;
46439;SDS011;32138;50.966;6.968;2023-08-24T00:12:53;10.25;;;6.53;;
46439;SDS011;32138;50.966;6.968;2023-08-24T00:14:24;7.75;;;5.15;;
46439;SDS011;32138;50.966;6.968;2023-08-24T00:15:55;8.48;;;5.57;;
46439;SDS011;32138;50.966;6.968;2023-08-24T00:17:25;9.82;;;6.22;;
46439;SDS011;32138;50.966;6.968;2023-08-24T00:18:56;7.28;;;5.25;;
46439;SDS011;32138;50.966;6.968;2023-08-24T00:20:27;6.35;;;5.50;;
46439;SDS011;32138;50.966;6.968;2023-08-24T00:21:58;8.35;;;6.60;;
46439;SDS011;32138;50.966;6.968;2023-08-24T00:23:28;10.98;;;6.93;;
46439;SDS011;32138;50.966;6.968;2023-08-24T00:24:59;9.00;;;6.18;;
46439;SDS011;32138;50.966;6.968;2023-08-24T00:26:30;7.93;;;5.32;;
46439;SDS011;32138;50.966;6.968;2023-08-24T00:28:01;9.55;;;6.05;;
46439;SDS011;32138;50.966;6.968;2023-08-24T00:29:31;10.68;;;5.80;;
46439;SDS011;32138;50.966;6.968;2023-08-24T00:31:02;7.93;;;5.15;;
46439;SDS011;32138;50.966;6.968;2023-08-24T00:32:33;10.50;;;6.13;;
46439;SDS011;32138;50.966;6.968;2023-08-24T00:34:05;7.22;;;4.97;;
46439;SDS011;32138;50.966;6.968;2023-08-24T00:35:35;7.30;;;6.15;;
46439;SDS011;32138;50.966;6.968;2023-08-24T00:37:06;12.50;;;6.95;;
46439;SDS011;32138;50.966;6.968;2023-08-24T00:38:37;10.70;;;6.22;;
46439;SDS011;32138;50.966;6.968;2023-08-24T00:40:08;9.00;;;5.80;;
46439;SDS011;32138;50.966;6.968;2023-08-24T00:41:39;8.68;;;5.88;;
46439;SDS011;32138;50.966;6.968;2023-08-24T00:43:11;8.57;;;6.20;;
46439;SDS011;32138;50.966;6.968;2023-08-24T00:44:43;10.98;;;6.07;;
46439;SDS011;32138;50.966;6.968;2023-08-24T00:46:13;7.65;;;5.68;;
46439;SDS011;32138;50.966;6.968;2023-08-24T00:47:45;10.43;;;6.60;;
46439;SDS011;32138;50.966;6.968;2023-08-24T00:49:17;16.58;;;7.78;;
46439;SDS011;32138;50.966;6.968;2023-08-24T00:50:48;13.02;;;6.70;;
46439;SDS011;32138;50.966;6.968;2023-08-24T00:52:19;8.55;;;6.53;;
46439;SDS011;32138;50.966;6.968;2023-08-24T00:53:49;8.02;;;5.25;;
46439;SDS011;32138;50.966;6.968;2023-08-24T00:55:21;8.65;;;5.68;;
46439;SDS011;32138;50.966;6.968;2023-08-24T00:56:52;9.55;;;5.65;;
46439;SDS011;32138;50.966;6.968;2023-08-24T00:58:24;9.73;;;5.25;;
46439;SDS011;32138;50.966;6.968;2023-08-24T00:59:57;9.13;;;5.63;;
46439;SDS011;32138;50.966;6.968;2023-08-24T01:01:33;7.50;;;5.50;;
46439;SDS011;32138;50.966;6.968;2023-08-24T01:03:04;7.30;;;5.28;;
46439;SDS011;32138;50.966;6.968;2023-08-24T01:04:34;6.68;;;5.18;;
46439;SDS011;32138;50.966;6.968;2023-08-24T01:06:06;7.50;;;4.93;;
46439;SDS011;32138;50.966;6.968;2023-08-24T01:07:37;12.02;;;6.00;;
46439;SDS011;32138;50.966;6.968;2023-08-24T01:09:09;7.93;;;5.00;;
46439;SDS011;32138;50.966;6.968;2023-08-24T01:10:59;9.48;;;5.55;;
46439;SDS011;32138;50.966;6.968;2023-08-24T01:16:39;7.65;;;5.07;;
46439;SDS011;32138;50.966;6.968;2023-08-24T01:18:14;8.18;;;4.70;;
46439;SDS011;32138;50.966;6.968;2023-08-24T01:19:49;6.28;;;4.72;;
46439;SDS011;32138;50.966;6.968;2023-08-24T01:21:20;8.65;;;5.28;;
46439;SDS011;32138;50.966;6.968;2023-08-24T01:22:58;6.15;;;4.53;;
46439;SDS011;32138;50.966;6.968;2023-08-24T01:25:20;7.07;;;5.15;;
46439;SDS011;32138;50.966;6.968;2023-08-24T01:27:05;8.65;;;4.97;;
46439;SDS011;32138;50.966;6.968;2023-08-24T01:28:36;9.43;;;4.95;;
46439;SDS011;32138;50.966;6.968;2023-08-24T01:30:08;11.50;;;5.88;;
46439;SDS011;32138;50.966;6.968;2023-08-24T01:31:40;6.88;;;4.57;;
46439;SDS011;32138;50.966;6.968;2023-08-24T01:33:10;6.45;;;4.97;;
46439;SDS011;32138;50.966;6.968;2023-08-24T01:34:42;6.82;;;4.45;;
46439;SDS011;32138;50.966;6.968;2023-08-24T01:36:13;8.57;;;5.05;;
46439;SDS011;32138;50.966;6.968;2023-08-24T01:37:47;7.40;;;4.95;;
46439;SDS011;32138;50.966;6.968;2023-08-24T01:39:21;6.22;;;4.60;;
46439;SDS011;32138;50.966;6.968;2023-08-24T01:41:22;8.60;;;4.60;;
46439;SDS011;32138;50.966;6.968;2023-08-24T01:42:58;9.15;;;4.82;;
46439;SDS011;32138;50.966;6.968;2023-08-24T01:44:35;10.18;;;4.45;;
46439;SDS011;32138;50.966;6.968;2023-08-24T01:46:10;11.00;;;5.40;;
46439;SDS011;32138;50.966;6.968;2023-08-24T01:47:46;7.70;;;4.90;;
46439;SDS011;32138;50.966;6.968;2023-08-24T01:49:18;8.48;;;5.32;;
46439;SDS011;32138;50.966;6.968;2023-08-24T01:50:51;8.93;;;5.15;;
46439;SDS011;32138;50.966;6.968;2023-08-24T01:52:22;10.05;;;5.15;;
46439;SDS011;32138;50.966;6.968;2023-08-24T01:53:54;8.27;;;5.22;;
46439;SDS011;32138;50.966;6.968;2023-08-24T01:55:27;9.57;;;4.85;;
46439;SDS011;32138;50.966;6.968;2023-08-24T01:56:58;11.25;;;4.68;;
46439;SDS011;32138;50.966;6.968;2023-08-24T01:58:29;10.43;;;5.07;;
46439;SDS011;32138;50.966;6.968;2023-08-24T02:00:00;9.52;;;5.15;;
46439;SDS011;32138;50.966;6.968;2023-08-24T02:01:30;7.97;;;4.88;;
46439;SDS011;32138;50.966;6.968;2023-08-24T02:03:01;8.90;;;5.03;;
46439;SDS011;32138;50.966;6.968;2023-08-24T02:04:32;7.13;;;4.72;;
46439;SDS011;32138;50.966;6.968;2023-08-24T02:06:03;8.90;;;5.05;;
46439;SDS011;32138;50.966;6.968;2023-08-24T02:07:34;8.10;;;4.65;;
46439;SDS011;32138;50.966;6.968;2023-08-24T02:09:05;8.75;;;4.85;;
46439;SDS011;32138;50.966;6.968;2023-08-24T02:10:36;6.50;;;4.97;;
46439;SDS011;32138;50.966;6.968;2023-08-24T02:12:07;9.60;;;5.72;;
46439;SDS011;32138;50.966;6.968;2023-08-24T02:13:38;7.47;;;4.38;;
46439;SDS011;32138;50.966;6.968;2023-08-24T02:15:09;6.97;;;4.82;;
46439;SDS011;32138;50.966;6.968;2023-08-24T02:16:39;5.63;;;4.53;;
46439;SDS011;32138;50.966;6.968;2023-08-24T02:18:10;9.77;;;4.80;;
46439;SDS011;32138;50.966;6.968;2023-08-24T02:19:41;11.45;;;5.63;;
46439;SDS011;32138;50.966;6.968;2023-08-24T02:21:12;7.97;;;5.22;;
46439;SDS011;32138;50.966;6.968;2023-08-24T02:22:44;7.85;;;5.07;;
46439;SDS011;32138;50.966;6.968;2023-08-24T02:24:15;7.82;;;5.07;;
46439;SDS011;32138;50.966;6.968;2023-08-24T02:25:45;9.68;;;5.07;;
46439;SDS011;32138;50.966;6.968;2023-08-24T02:27:16;6.30;;;4.47;;
46439;SDS011;32138;50.966;6.968;2023-08-24T02:28:48;9.15;;;4.90;;
46439;SDS011;32138;50.966;6.968;2023-08-24T02:30:19;10.73;;;4.90;;
46439;SDS011;32138;50.966;6.968;2023-08-24T02:31:50;11.93;;;5.20;;
46439;SDS011;32138;50.966;6.968;2023-08-24T02:33:20;7.15;;;5.43;;
46439;SDS011;32138;50.966;6.968;2023-08-24T02:34:51;9.55;;;4.97;;
46439;SDS011;32138;50.966;6.968;2023-08-24T02:36:22;8.13;;;4.65;;
46439;SDS011;32138;50.966;6.968;2023-08-24T02:37:53;8.35;;;4.90;;
46439;SDS011;32138;50.966;6.968;2023-08-24T02:39:26;9.25;;;5.18;;
46439;SDS011;32138;50.966;6.968;2023-08-24T02:41:03;9.48;;;5.40;;
46439;SDS011;32138;50.966;6.968;2023-08-24T02:42:35;9.37;;;4.90;;
46439;SDS011;32138;50.966;6.968;2023-08-24T02:44:06;8.55;;;4.70;;
46439;SDS011;32138;50.966;6.968;2023-08-24T02:45:37;9.35;;;5.25;;
46439;SDS011;32138;50.966;6.968;2023-08-24T02:47:08;10.38;;;5.10;;
46439;SDS011;32138;50.966;6.968;2023-08-24T02:48:39;9.68;;;5.22;;
46439;SDS011;32138;50.966;6.968;2023-08-24T02:50:10;7.95;;;5.25;;
46439;SDS011;32138;50.966;6.968;2023-08-24T02:51:41;9.75;;;5.50;;
46439;SDS011;32138;50.966;6.968;2023-08-24T02:53:11;11.02;;;5.10;;
46439;SDS011;32138;50.966;6.968;2023-08-24T02:54:42;8.00;;;4.95;;
46439;SDS011;32138;50.966;6.968;2023-08-24T02:56:13;11.40;;;5.18;;
46439;SDS011;32138;50.966;6.968;2023-08-24T02:57:44;7.40;;;4.45;;
46439;SDS011;32138;50.966;6.968;2023-08-24T02:59:14;9.77;;;5.72;;
46439;SDS011;32138;50.966;6.968;2023-08-24T03:00:45;8.65;;;4.68;;
46439;SDS011;32138;50.966;6.968;2023-08-24T03:02:16;10.90;;;5.57;;
46439;SDS011;32138;50.966;6.968;2023-08-24T03:03:47;6.45;;;4.38;;
46439;SDS011;32138;50.966;6.968;2023-08-24T03:05:18;12.93;;;4.97;;
46439;SDS011;32138;50.966;6.968;2023-08-24T03:06:48;9.18;;;5.25;;
46439;SDS011;32138;50.966;6.968;2023-08-24T03:08:19;12.18;;;4.50;;
46439;SDS011;32138;50.966;6.968;2023-08-24T03:09:50;11.93;;;5.00;;
46439;SDS011;32138;50.966;6.968;2023-08-24T03:11:21;8.88;;;4.70;;
46439;SDS011;32138;50.966;6.968;2023-08-24T03:12:52;8.52;;;4.63;;
46439;SDS011;32138;50.966;6.968;2023-08-24T03:14:22;8.65;;;4.20;;
46439;SDS011;32138;50.966;6.968;2023-08-24T03:15:53;8.85;;;4.60;;
46439;SDS011;32138;50.966;6.968;2023-08-24T03:17:24;6.25;;;4.03;;
46439;SDS011;32138;50.966;6.968;2023-08-24T03:18:56;7.93;;;4.93;;
46439;SDS011;32138;50.966;6.968;2023-08-24T03:20:26;9.50;;;4.97;;
46439;SDS011;32138;50.966;6.968;2023-08-24T03:21:57;10.20;;;4.90;;
46439;SDS011;32138;50.966;6.968;2023-08-24T03:23:28;7.32;;;4.60;;
46439;SDS011;32138;50.966;6.968;2023-08-24T03:24:58;9.85;;;4.43;;
46439;SDS011;32138;50.966;6.968;2023-08-24T03:26:30;9.65;;;3.90;;
46439;SDS011;32138;50.966;6.968;2023-08-24T03:28:01;10.52;;;4.70;;
46439;SDS011;32138;50.966;6.968;2023-08-24T03:29:33;6.38;;;4.95;;
46439;SDS011;32138;50.966;6.968;2023-08-24T03:31:05;8.63;;;5.10;;
46439;SDS011;32138;50.966;6.968;2023-08-24T03:32:36;10.98;;;4.30;;
46439;SDS011;32138;50.966;6.968;2023-08-24T03:34:07;6.68;;;4.30;;
46439;SDS011;32138;50.966;6.968;2023-08-24T03:35:38;9.70;;;4.68;;
46439;SDS011;32138;50.966;6.968;2023-08-24T03:37:09;6.03;;;4.28;;
46439;SDS011;32138;50.966;6.968;2023-08-24T03:38:40;11.88;;;5.60;;
46439;SDS011;32138;50.966;6.968;2023-08-24T03:40:11;9.85;;;4.47;;
46439;SDS011;32138;50.966;6.968;2023-08-24T03:41:43;11.70;;;4.82;;
46439;SDS011;32138;50.966;6.968;2023-08-24T03:43:13;9.07;;;4.65;;
46439;SDS011;32138;50.966;6.968;2023-08-24T03:44:44;8.50;;;4.07;;
46439;SDS011;32138;50.966;6.968;2023-08-24T03:46:15;8.98;;;4.25;;
46439;SDS011;32138;50.966;6.968;2023-08-24T03:47:46;7.85;;;4.68;;
46439;SDS011;32138;50.966;6.968;2023-08-24T03:49:16;10.65;;;4.45;;
46439;SDS011;32138;50.966;6.968;2023-08-24T03:50:47;10.73;;;4.53;;
46439;SDS011;32138;50.966;6.968;2023-08-24T03:52:18;7.25;;;4.13;;
46439;SDS011;32138;50.966;6.968;2023-08-24T03:53:48;11.48;;;4.60;;
46439;SDS011;32138;50.966;6.968;2023-08-24T03:55:19;9.43;;;4.55;;
46439;SDS011;32138;50.966;6.968;2023-08-24T03:56:51;7.80;;;4.88;;
46439;SDS011;32138;50.966;6.968;2023-08-24T03:58:21;8.18;;;4.70;;
46439;SDS011;32138;50.966;6.968;2023-08-24T03:59:52;6.55;;;4.30;;
46439;SDS011;32138;50.966;6.968;2023-08-24T04:01:23;6.32;;;4.45;;
46439;SDS011;32138;50.966;6.968;2023-08-24T04:02:54;7.32;;;4.05;;
46439;SDS011;32138;50.966;6.968;2023-08-24T04:04:24;7.75;;;4.80;;
46439;SDS011;32138;50.966;6.968;2023-08-24T04:05:55;11.95;;;4.22;;
46439;SDS011;32138;50.966;6.968;2023-08-24T04:07:26;10.98;;;4.75;;
46439;SDS011;32138;50.966;6.968;2023-08-24T04:08:57;5.50;;;4.65;;
46439;SDS011;32138;50.966;6.968;2023-08-24T04:10:28;11.68;;;4.55;;
46439;SDS011;32138;50.966;6.968;2023-08-24T04:12:00;7.53;;;4.50;;
46439;SDS011;32138;50.966;6.968;2023-08-24T04:13:30;8.77;;;4.00;;
46439;SDS011;32138;50.966;6.968;2023-08-24T04:15:01;9.65;;;4.50;;
46439;SDS011;32138;50.966;6.968;2023-08-24T04:16:33;6.72;;;4.28;;
46439;SDS011;32138;50.966;6.968;2023-08-24T04:18:03;7.10;;;4.57;;
46439;SDS011;32138;50.966;6.968;2023-08-24T04:19:37;8.40;;;5.13;;
46439;SDS011;32138;50.966;6.968;2023-08-24T04:21:08;6.85;;;4.40;;
46439;SDS011;32138;50.966;6.968;2023-08-24T04:22:39;7.70;;;4.53;;
46439;SDS011;32138;50.966;6.968;2023-08-24T04:24:10;8.50;;;4.32;;
46439;SDS011;32138;50.966;6.968;2023-08-24T04:25:40;8.93;;;4.47;;
46439;SDS011;32138;50.966;6.968;2023-08-24T04:27:11;6.50;;;4.47;;
46439;SDS011;32138;50.966;6.968;2023-08-24T04:28:42;6.68;;;5.25;;
46439;SDS011;32138;50.966;6.968;2023-08-24T04:30:13;7.88;;;5.05;;
46439;SDS011;32138;50.966;6.968;2023-08-24T04:31:44;7.95;;;4.25;;
46439;SDS011;32138;50.966;6.968;2023-08-24T04:33:14;11.30;;;4.57;;
46439;SDS011;32138;50.966;6.968;2023-08-24T04:34:45;9.20;;;4.35;;
46439;SDS011;32138;50.966;6.968;2023-08-24T04:36:16;6.30;;;4.60;;
46439;SDS011;32138;50.966;6.968;2023-08-24T04:37:47;7.53;;;4.50;;
46439;SDS011;32138;50.966;6.968;2023-08-24T04:39:18;6.75;;;4.53;;
46439;SDS011;32138;50.966;6.968;2023-08-24T04:42:21;11.43;;;4.82;;
46439;SDS011;32138;50.966;6.968;2023-08-24T04:43:51;7.15;;;5.20;;
46439;SDS011;32138;50.966;6.968;2023-08-24T04:45:22;9.02;;;4.72;;
46439;SDS011;32138;50.966;6.968;2023-08-24T04:46:53;6.90;;;4.22;;
46439;SDS011;32138;50.966;6.968;2023-08-24T04:48:24;9.60;;;5.25;;
46439;SDS011;32138;50.966;6.968;2023-08-24T04:50:02;7.93;;;5.40;;
46439;SDS011;32138;50.966;6.968;2023-08-24T04:51:33;7.43;;;5.05;;
46439;SDS011;32138;50.966;6.968;2023-08-24T04:53:04;8.50;;;4.95;;
46439;SDS011;32138;50.966;6.968;2023-08-24T04:54:36;14.45;;;5.85;;
46439;SDS011;32138;50.966;6.968;2023-08-24T04:56:06;12.25;;;5.53;;
46439;SDS011;32138;50.966;6.968;2023-08-24T04:57:37;15.82;;;5.53;;
46439;SDS011;32138;50.966;6.968;2023-08-24T04:59:08;12.93;;;5.47;;
46439;SDS011;32138;50.966;6.968;2023-08-24T05:00:39;8.77;;;5.32;;
46439;SDS011;32138;50.966;6.968;2023-08-24T05:02:09;7.75;;;5.47;;
46439;SDS011;32138;50.966;6.968;2023-08-24T05:03:40;10.70;;;6.15;;
46439;SDS011;32138;50.966;6.968;2023-08-24T05:05:11;10.40;;;5.80;;
46439;SDS011;32138;50.966;6.968;2023-08-24T05:06:44;10.60;;;6.45;;
46439;SDS011;32138;50.966;6.968;2023-08-24T05:08:14;8.05;;;6.22;;
46439;SDS011;32138;50.966;6.968;2023-08-24T05:09:45;14.07;;;6.50;;
46439;SDS011;32138;50.966;6.968;2023-08-24T05:11:20;10.68;;;6.32;;
46439;SDS011;32138;50.966;6.968;2023-08-24T05:12:54;11.30;;;5.70;;
46439;SDS011;32138;50.966;6.968;2023-08-24T05:14:24;11.88;;;6.93;;
46439;SDS011;32138;50.966;6.968;2023-08-24T05:15:55;11.75;;;6.75;;
46439;SDS011;32138;50.966;6.968;2023-08-24T05:17:26;12.13;;;6.25;;
46439;SDS011;32138;50.966;6.968;2023-08-24T05:18:58;11.20;;;5.82;;
46439;SDS011;32138;50.966;6.968;2023-08-24T05:20:28;12.65;;;6.97;;
46439;SDS011;32138;50.966;6.968;2023-08-24T05:21:59;8.50;;;6.28;;
46439;SDS011;32138;50.966;6.968;2023-08-24T05:23:33;12.38;;;6.53;;
46439;SDS011;32138;50.966;6.968;2023-08-24T05:25:05;14.40;;;6.78;;
46439;SDS011;32138;50.966;6.968;2023-08-24T05:26:36;13.70;;;6.85;;
46439;SDS011;32138;50.966;6.968;2023-08-24T05:28:07;11.98;;;6.63;;
46439;SDS011;32138;50.966;6.968;2023-08-24T05:29:38;10.07;;;6.38;;
46439;SDS011;32138;50.966;6.968;2023-08-24T05:31:09;16.75;;;7.10;;
46439;SDS011;32138;50.966;6.968;2023-08-24T05:32:40;12.23;;;6.25;;
46439;SDS011;32138;50.966;6.968;2023-08-24T05:34:11;10.52;;;6.53;;
46439;SDS011;32138;50.966;6.968;2023-08-24T05:35:41;10.27;;;6.63;;
46439;SDS011;32138;50.966;6.968;2023-08-24T05:37:12;12.98;;;6.88;;
46439;SDS011;32138;50.966;6.968;2023-08-24T05:38:43;12.82;;;7.35;;
46439;SDS011;32138;50.966;6.968;2023-08-24T05:40:17;10.10;;;5.90;;
46439;SDS011;32138;50.966;6.968;2023-08-24T05:41:50;10.90;;;6.50;;
46439;SDS011;32138;50.966;6.968;2023-08-24T05:43:22;9.77;;;6.78;;
46439;SDS011;32138;50.966;6.968;2023-08-24T05:44:52;6.95;;;5.75;;
46439;SDS011;32138;50.966;6.968;2023-08-24T05:46:23;15.05;;;7.43;;
46439;SDS011;32138;50.966;6.968;2023-08-24T05:47:54;8.85;;;5.90;;
46439;SDS011;32138;50.966;6.968;2023-08-24T05:49:25;6.82;;;5.53;;
46439;SDS011;32138;50.966;6.968;2023-08-24T05:50:56;9.50;;;5.63;;
46439;SDS011;32138;50.966;6.968;2023-08-24T05:52:27;8.32;;;5.72;;
46439;SDS011;32138;50.966;6.968;2023-08-24T05:53:57;10.45;;;6.43;;
46439;SDS011;32138;50.966;6.968;2023-08-24T05:55:28;11.15;;;6.60;;
46439;SDS011;32138;50.966;6.968;2023-08-24T05:56:59;9.00;;;5.35;;
46439;SDS011;32138;50.966;6.968;2023-08-24T05:58:30;8.57;;;6.45;;
46439;SDS011;32138;50.966;6.968;2023-08-24T06:00:01;12.55;;;7.38;;
46439;SDS011;32138;50.966;6.968;2023-08-24T06:01:33;8.60;;;7.03;;
46439;SDS011;32138;50.966;6.968;2023-08-24T06:03:04;10.68;;;7.00;;
46439;SDS011;32138;50.966;6.968;2023-08-24T06:04:35;11.02;;;6.45;;
46439;SDS011;32138;50.966;6.968;2023-08-24T06:06:06;12.30;;;7.00;;
46439;SDS011;32138;50.966;6.968;2023-08-24T06:07:39;10.73;;;6.13;;
46439;SDS011;32138;50.966;6.968;2023-08-24T06:09:09;9.25;;;5.78;;
46439;SDS011;32138;50.966;6.968;2023-08-24T06:10:41;14.60;;;6.75;;
46439;SDS011;32138;50.966;6.968;2023-08-24T06:12:11;13.90;;;6.00;;
46439;SDS011;32138;50.966;6.968;2023-08-24T06:13:42;12.52;;;6.03;;
46439;SDS011;32138;50.966;6.968;2023-08-24T06:15:13;7.30;;;5.53;;
46439;SDS011;32138;50.966;6.968;2023-08-24T06:16:44;7.60;;;6.18;;
46439;SDS011;32138;50.966;6.968;2023-08-24T06:18:14;11.00;;;6.03;;
46439;SDS011;32138;50.966;6.968;2023-08-24T06:19:46;10.30;;;6.15;;
46439;SDS011;32138;50.966;6.968;2023-08-24T06:21:16;9.02;;;5.70;;
46439;SDS011;32138;50.966;6.968;2023-08-24T06:22:47;11.07;;;5.93;;
46439;SDS011;32138;50.966;6.968;2023-08-24T06:24:18;11.07;;;5.80;;
46439;SDS011;32138;50.966;6.968;2023-08-24T06:25:49;14.93;;;6.20;;
46439;SDS011;32138;50.966;6.968;2023-08-24T06:27:19;6.78;;;5.30;;
46439;SDS011;32138;50.966;6.968;2023-08-24T06:28:50;14.10;;;5.95;;
46439;SDS011;32138;50.966;6.968;2023-08-24T06:30:21;9.55;;;5.78;;
46439;SDS011;32138;50.966;6.968;2023-08-24T06:31:51;7.00;;;5.75;;
46439;SDS011;32138;50.966;6.968;2023-08-24T06:33:28;8.43;;;6.30;;
46439;SDS011;32138;50.966;6.968;2023-08-24T06:35:00;8.55;;;6.00;;
46439;SDS011;32138;50.966;6.968;2023-08-24T06:36:30;8.65;;;5.68;;
46439;SDS011;32138;50.966;6.968;2023-08-24T06:38:02;9.70;;;6.05;;
46439;SDS011;32138;50.966;6.968;2023-08-24T06:39:33;8.20;;;5.72;;
46439;SDS011;32138;50.966;6.968;2023-08-24T06:41:04;8.38;;;5.60;;
46439;SDS011;32138;50.966;6.968;2023-08-24T06:42:35;8.25;;;5.60;;
46439;SDS011;32138;50.966;6.968;2023-08-24T06:44:06;7.88;;;5.45;;
46439;SDS011;32138;50.966;6.968;2023-08-24T06:45:37;9.23;;;5.38;;
46439;SDS011;32138;50.966;6.968;2023-08-24T06:47:08;10.43;;;5.95;;
46439;SDS011;32138;50.966;6.968;2023-08-24T06:48:38;7.55;;;5.40;;
46439;SDS011;32138;50.966;6.968;2023-08-24T06:50:09;7.85;;;5.57;;
46439;SDS011;32138;50.966;6.968;2023-08-24T06:51:40;14.18;;;5.88;;
46439;SDS011;32138;50.966;6.968;2023-08-24T06:53:11;10.15;;;6.90;;
46439;SDS011;32138;50.966;6.968;2023-08-24T06:54:42;9.55;;;5.50;;
46439;SDS011;32138;50.966;6.968;2023-08-24T06:56:12;9.15;;;5.60;;
46439;SDS011;32138;50.966;6.968;2023-08-24T06:57:47;8.07;;;5.57;;
46439;SDS011;32138;50.966;6.968;2023-08-24T06:59:20;9.25;;;5.32;;
46439;SDS011;32138;50.966;6.968;2023-08-24T07:00:51;9.57;;;5.93;;
46439;SDS011;32138;50.966;6.968;2023-08-24T07:02:22;10.35;;;5.65;;
46439;SDS011;32138;50.966;6.968;2023-08-24T07:03:53;10.20;;;5.57;;
46439;SDS011;32138;50.966;6.968;2023-08-24T07:05:24;8.38;;;5.80;;
46439;SDS011;32138;50.966;6.968;2023-08-24T07:06:54;9.85;;;5.60;;
46439;SDS011;32138;50.966;6.968;2023-08-24T07:08:25;6.85;;;4.80;;
46439;SDS011;32138;50.966;6.968;2023-08-24T07:09:56;6.82;;;4.45;;
46439;SDS011;32138;50.966;6.968;2023-08-24T07:11:27;9.93;;;4.75;;
46439;SDS011;32138;50.966;6.968;2023-08-24T07:12:57;10.55;;;5.28;;
46439;SDS011;32138;50.966;6.968;2023-08-24T07:14:28;11.13;;;4.82;;
46439;SDS011;32138;50.966;6.968;2023-08-24T07:15:59;9.65;;;5.03;;
46439;SDS011;32138;50.966;6.968;2023-08-24T07:17:30;9.13;;;4.88;;
46439;SDS011;32138;50.966;6.968;2023-08-24T07:19:01;11.77;;;4.72;;
46439;SDS011;32138;50.966;6.968;2023-08-24T07:20:32;6.72;;;4.53;;
46439;SDS011;32138;50.966;6.968;2023-08-24T07:22:03;6.40;;;4.60;;
46439;SDS011;32138;50.966;6.968;2023-08-24T07:23:34;17.73;;;4.68;;
46439;SDS011;32138;50.966;6.968;2023-08-24T07:25:05;7.80;;;4.18;;
46439;SDS011;32138;50.966;6.968;2023-08-24T07:26:36;6.63;;;4.13;;
46439;SDS011;32138;50.966;6.968;2023-08-24T07:28:07;8.60;;;4.15;;
46439;SDS011;32138;50.966;6.968;2023-08-24T07:29:38;8.80;;;4.60;;
46439;SDS011;32138;50.966;6.968;2023-08-24T07:31:10;6.00;;;3.83;;
46439;SDS011;32138;50.966;6.968;2023-08-24T07:32:41;13.32;;;4.63;;
46439;SDS011;32138;50.966;6.968;2023-08-24T07:34:12;8.15;;;3.75;;
46439;SDS011;32138;50.966;6.968;2023-08-24T07:35:43;8.13;;;3.90;;
46439;SDS011;32138;50.966;6.968;2023-08-24T07:37:13;7.78;;;4.05;;
46439;SDS011;32138;50.966;6.968;2023-08-24T07:38:44;8.32;;;3.97;;
46439;SDS011;32138;50.966;6.968;2023-08-24T07:40:17;8.18;;;4.38;;
46439;SDS011;32138;50.966;6.968;2023-08-24T07:41:48;7.15;;;3.58;;
46439;SDS011;32138;50.966;6.968;2023-08-24T07:43:18;9.27;;;4.38;;
46439;SDS011;32138;50.966;6.968;2023-08-24T07:44:49;5.65;;;3.60;;
46439;SDS011;32138;50.966;6.968;2023-08-24T07:46:20;7.60;;;4.70;;
46439;SDS011;32138;50.966;6.968;2023-08-24T07:47:51;8.85;;;3.88;;
46439;SDS011;32138;50.966;6.968;2023-08-24T07:49:22;7.65;;;4.30;;
46439;SDS011;32138;50.966;6.968;2023-08-24T07:50:53;11.20;;;3.88;;
46439;SDS011;32138;50.966;6.968;2023-08-24T07:52:23;10.77;;;4.03;;
46439;SDS011;32138;50.966;6.968;2023-08-24T07:53:57;5.95;;;3.67;;
46439;SDS011;32138;50.966;6.968;2023-08-24T07:55:28;9.50;;;4.50;;
46439;SDS011;32138;50.966;6.968;2023-08-24T07:56:58;6.65;;;3.70;;
46439;SDS011;32138;50.966;6.968;2023-08-24T07:58:29;9.52;;;3.78;;
46439;SDS011;32138;50.966;6.968;2023-08-24T08:00:02;4.95;;;3.38;;
46439;SDS011;32138;50.966;6.968;2023-08-24T08:01:34;10.80;;;4.22;;
46439;SDS011;32138;50.966;6.968;2023-08-24T08:03:05;5.93;;;3.97;;
46439;SDS011;32138;50.966;6.968;2023-08-24T08:04:38;7.65;;;3.65;;
46439;SDS011;32138;50.966;6.968;2023-08-24T08:06:09;7.00;;;3.40;;
46439;SDS011;32138;50.966;6.968;2023-08-24T08:07:40;11.25;;;3.92;;
46439;SDS011;32138;50.966;6.968;2023-08-24T08:09:11;6.15;;;4.20;;
46439;SDS011;32138;50.966;6.968;2023-08-24T08:10:42;5.43;;;3.50;;
46439;SDS011;32138;50.966;6.968;2023-08-24T08:12:13;6.00;;;3.65;;
46439;SDS011;32138;50.966;6.968;2023-08-24T08:13:44;9.68;;;4.15;;
46439;SDS011;32138;50.966;6.968;2023-08-24T08:15:15;6.13;;;3.45;;
46439;SDS011;32138;50.966;6.968;2023-08-24T08:16:46;10.43;;;3.88;;
46439;SDS011;32138;50.966;6.968;2023-08-24T08:18:17;8.25;;;3.45;;
46439;SDS011;32138;50.966;6.968;2023-08-24T08:19:48;5.03;;;3.15;;
46439;SDS011;32138;50.966;6.968;2023-08-24T08:21:19;8.27;;;3.50;;
46439;SDS011;32138;50.966;6.968;2023-08-24T08:22:49;8.82;;;3.65;;
46439;SDS011;32138;50.966;6.968;2023-08-24T08:24:20;5.07;;;3.17;;
46439;SDS011;32138;50.966;6.968;2023-08-24T08:25:51;5.38;;;3.55;;
46439;SDS011;32138;50.966;6.968;2023-08-24T08:27:22;5.53;;;3.67;;
46439;SDS011;32138;50.966;6.968;2023-08-24T08:28:53;5.15;;;3.25;;
46439;SDS011;32138;50.966;6.968;2023-08-24T08:30:24;6.50;;;3.13;;
46439;SDS011;32138;50.966;6.968;2023-08-24T08:31:55;5.75;;;3.28;;
46439;SDS011;32138;50.966;6.968;2023-08-24T08:33:25;10.77;;;3.78;;
46439;SDS011;32138;50.966;6.968;2023-08-24T08:34:56;6.63;;;3.65;;
46439;SDS011;32138;50.966;6.968;2023-08-24T08:36:28;5.97;;;2.92;;
46439;SDS011;32138;50.966;6.968;2023-08-24T08:37:59;5.78;;;3.50;;
46439;SDS011;32138;50.966;6.968;2023-08-24T08:39:31;8.82;;;3.45;;
46439;SDS011;32138;50.966;6.968;2023-08-24T08:41:03;5.35;;;3.33;;
46439;SDS011;32138;50.966;6.968;2023-08-24T08:42:34;6.63;;;2.95;;
46439;SDS011;32138;50.966;6.968;2023-08-24T08:44:06;7.57;;;4.30;;
46439;SDS011;32138;50.966;6.968;2023-08-24T08:45:40;6.63;;;3.50;;
46439;SDS011;32138;50.966;6.968;2023-08-24T08:47:11;4.90;;;3.47;;
46439;SDS011;32138;50.966;6.968;2023-08-24T08:48:44;6.63;;;3.55;;
46439;SDS011;32138;50.966;6.968;2023-08-24T08:50:16;4.78;;;3.33;;
46439;SDS011;32138;50.966;6.968;2023-08-24T08:51:47;8.45;;;3.63;;
46439;SDS011;32138;50.966;6.968;2023-08-24T08:53:20;4.88;;;3.03;;
46439;SDS011;32138;50.966;6.968;2023-08-24T08:54:52;5.70;;;3.17;;
46439;SDS011;32138;50.966;6.968;2023-08-24T08:56:23;8.82;;;3.63;;
46439;SDS011;32138;50.966;6.968;2023-08-24T08:57:55;6.30;;;3.60;;
46439;SDS011;32138;50.966;6.968;2023-08-24T08:59:28;7.15;;;3.30;;
46439;SDS011;32138;50.966;6.968;2023-08-24T09:01:00;6.22;;;3.58;;
46439;SDS011;32138;50.966;6.968;2023-08-24T09:02:33;4.38;;;3.20;;
46439;SDS011;32138;50.966;6.968;2023-08-24T09:04:05;5.78;;;3.33;;
46439;SDS011;32138;50.966;6.968;2023-08-24T09:05:37;5.07;;;3.30;;
46439;SDS011;32138;50.966;6.968;2023-08-24T09:07:08;6.22;;;3.67;;
46439;SDS011;32138;50.966;6.968;2023-08-24T09:08:41;5.45;;;3.20;;
46439;SDS011;32138;50.966;6.968;2023-08-24T09:10:12;6.40;;;3.55;;
46439;SDS011;32138;50.966;6.968;2023-08-24T09:11:43;6.25;;;3.25;;
46439;SDS011;32138;50.966;6.968;2023-08-24T09:13:17;5.65;;;2.90;;
46439;SDS011;32138;50.966;6.968;2023-08-24T09:14:48;4.38;;;2.92;;